createdAt,value
2023-01-03T06:03:23.068Z,9.50
2023-01-03T06:08:26.930Z,9.50
2023-01-03T06:13:30.534Z,9.50
2023-01-03T06:18:36.275Z,9.50
2023-01-03T06:28:44.313Z,9.40
2023-01-03T06:33:49.904Z,9.50
2023-01-03T06:38:53.640Z,9.40
2023-01-03T06:43:57.446Z,9.40
2023-01-03T06:49:22.119Z,9.40
2023-01-03T06:54:27.752Z,9.30
2023-01-03T06:59:31.458Z,9.40
2023-01-03T07:04:36.490Z,9.40
2023-01-03T07:14:44.100Z,9.50
2023-01-03T07:19:49.083Z,9.60
2023-01-03T07:24:52.677Z,9.60
2023-01-03T07:35:02.340Z,9.60
2023-01-03T07:40:07.719Z,9.70
2023-01-03T07:45:11.920Z,9.70
2023-01-03T07:50:17.135Z,9.70
2023-01-03T07:55:20.764Z,9.60
2023-01-03T08:00:24.549Z,9.60
2023-01-03T08:05:29.573Z,9.60
2023-01-03T08:10:50.851Z,9.60
2023-01-03T08:15:57.047Z,9.60
2023-01-03T08:21:02.116Z,9.60
2023-01-03T08:26:08.382Z,9.70
2023-01-03T08:31:14.746Z,9.80
2023-01-03T08:36:20.634Z,9.90
2023-01-03T08:41:27.656Z,10.00
2023-01-03T08:46:33.326Z,10.10
2023-01-03T08:51:38.412Z,10.20
2023-01-03T08:56:42.217Z,10.30
2023-01-03T09:01:46.108Z,10.40
2023-01-03T09:06:51.182Z,10.60
2023-01-03T09:11:54.792Z,10.70
2023-01-03T09:16:58.804Z,10.90
2023-01-03T09:22:04.104Z,11.00
2023-01-03T09:27:07.700Z,11.20
2023-01-03T09:32:11.501Z,11.60
2023-01-03T09:37:16.788Z,11.90
2023-01-03T09:42:42.019Z,12.10
2023-01-03T09:47:47.102Z,12.30
2023-01-03T09:53:10.654Z,12.50
2023-01-03T09:58:33.864Z,12.50
2023-01-03T10:03:51.834Z,12.60
2023-01-03T10:09:08.476Z,12.80
2023-01-03T10:14:25.458Z,13.00
2023-01-03T10:19:55.877Z,13.20
2023-01-03T10:25:11.695Z,13.30
2023-01-03T10:30:19.328Z,13.60
2023-01-03T10:35:25.886Z,13.90
2023-01-03T10:40:36.892Z,14.10
2023-01-03T10:45:53.473Z,14.30
2023-01-03T10:56:04.150Z,14.60
2023-01-03T11:01:23.132Z,14.60
2023-01-03T11:06:26.989Z,14.50
2023-01-03T11:11:37.333Z,14.50
2023-01-03T11:16:41.095Z,14.40
2023-01-03T11:21:51.289Z,14.40
2023-01-03T11:27:03.843Z,14.40
2023-01-03T11:32:18.722Z,14.40
2023-01-03T11:37:32.235Z,14.40
2023-01-03T11:42:51.996Z,14.40
2023-01-03T11:48:05.963Z,14.40
2023-01-03T11:53:21.188Z,14.40
2023-01-03T11:59:01.869Z,14.30
2023-01-03T12:04:25.083Z,14.30
2023-01-03T12:09:34.643Z,14.30
2023-01-03T12:14:44.986Z,14.30
2023-01-03T12:19:54.099Z,14.30
2023-01-03T12:25:04.986Z,14.30
2023-01-03T12:30:37.074Z,14.30
2023-01-03T12:35:47.900Z,14.20
2023-01-03T12:40:58.015Z,14.20
2023-01-03T12:46:13.005Z,14.20
2023-01-03T12:51:20.810Z,14.20
2023-01-03T12:56:46.668Z,14.20
2023-01-03T13:01:56.491Z,14.10
2023-01-03T13:07:06.051Z,14.20
2023-01-03T13:12:15.529Z,14.20
2023-01-03T13:17:21.951Z,14.20
2023-01-03T13:22:50.569Z,14.30
2023-01-03T13:27:55.355Z,14.40
2023-01-03T13:33:17.081Z,14.40
2023-01-03T13:38:26.793Z,14.40
2023-01-03T13:43:39.281Z,14.50
2023-01-03T13:48:55.186Z,14.50
2023-01-03T13:54:02.605Z,14.50
2023-01-03T13:59:20.625Z,14.50
2023-01-03T14:05:00.700Z,14.40
2023-01-03T14:10:31.352Z,14.50
2023-01-03T14:15:36.091Z,14.50
2023-01-03T14:20:46.280Z,14.50
2023-01-03T14:25:50.103Z,14.50
2023-01-03T14:31:02.552Z,14.50
2023-01-03T14:36:11.975Z,14.50
2023-01-03T14:41:27.619Z,14.50
2023-01-03T14:46:32.741Z,14.40
2023-01-03T14:51:38.603Z,14.40
2023-01-03T14:56:45.299Z,14.40
2023-01-03T15:07:08.044Z,14.30
2023-01-03T15:17:25.664Z,14.40
2023-01-03T15:22:40.365Z,14.30
2023-01-03T15:27:45.560Z,14.30
2023-01-03T15:33:01.458Z,14.30
2023-01-03T15:38:14.942Z,14.20
2023-01-03T15:43:23.231Z,14.20
2023-01-03T15:48:28.389Z,14.10
2023-01-03T15:53:42.863Z,14.00
2023-01-03T15:58:49.059Z,14.10
2023-01-03T16:03:53.718Z,14.00
2023-01-03T16:08:59.034Z,14.00
2023-01-03T16:14:05.828Z,14.10
2023-01-03T16:19:18.130Z,14.00
2023-01-03T16:24:23.136Z,14.00
2023-01-03T16:29:27.024Z,14.00
2023-01-03T16:34:33.804Z,14.00
2023-01-03T16:39:45.703Z,13.90
2023-01-03T16:44:56.688Z,13.90
2023-01-03T16:50:03.578Z,13.90
2023-01-03T16:55:18.806Z,13.90
2023-01-03T17:00:24.692Z,13.90
2023-01-03T17:05:30.477Z,13.90
2023-01-03T17:10:38.744Z,13.80
2023-01-03T17:20:47.252Z,13.70
2023-01-03T17:25:52.625Z,13.70
2023-01-03T17:41:06.708Z,13.50
2023-01-03T17:46:35.482Z,13.50
2023-01-03T17:51:39.223Z,13.50
2023-01-03T17:56:44.923Z,13.50
2023-01-03T18:01:52.362Z,13.50
2023-01-03T18:06:59.012Z,13.50
2023-01-03T18:12:04.087Z,13.50
2023-01-03T18:17:12.072Z,13.50
2023-01-03T18:27:22.857Z,13.50
2023-01-03T18:32:29.095Z,13.40
2023-01-03T18:37:34.812Z,13.40
2023-01-03T18:42:57.123Z,13.30
2023-01-03T18:48:00.955Z,13.30
2023-01-03T18:53:05.222Z,13.20
2023-01-03T18:58:19.256Z,13.20
2023-01-03T19:03:26.124Z,13.20
2023-01-03T19:08:33.606Z,13.20
2023-01-03T19:13:54.669Z,13.20
2023-01-03T19:18:59.124Z,13.30
2023-01-03T19:24:06.336Z,13.20
2023-01-03T19:29:18.967Z,13.20
2023-01-03T19:34:24.595Z,13.30
2023-01-03T19:44:42.773Z,13.30
2023-01-03T19:49:48.327Z,13.30
2023-01-03T19:54:52.234Z,13.30
2023-01-03T20:00:01.317Z,13.30
2023-01-03T20:05:14.385Z,13.40
2023-01-03T20:10:20.929Z,13.40
2023-01-03T20:15:28.883Z,13.40
2023-01-03T20:20:34.868Z,13.40
2023-01-03T20:25:38.693Z,13.50
2023-01-03T20:30:43.866Z,13.50
2023-01-03T20:41:13.255Z,13.50
2023-01-03T20:46:20.966Z,13.50
2023-01-03T20:51:25.156Z,13.50
2023-01-03T20:56:29.655Z,13.60
2023-01-03T21:01:35.693Z,13.60
2023-01-03T21:06:41.553Z,13.60
2023-01-03T21:11:46.743Z,13.70
2023-01-03T21:16:51.922Z,13.70
2023-01-03T21:21:58.280Z,13.80
2023-01-03T21:27:01.992Z,13.80
2023-01-03T21:32:07.572Z,13.90
2023-01-03T21:37:11.796Z,13.90
2023-01-03T21:42:33.355Z,13.90
2023-01-03T21:47:38.675Z,14.00
2023-01-03T21:57:46.806Z,14.00
2023-01-03T22:03:09.654Z,14.00
2023-01-03T22:08:13.383Z,14.10
2023-01-03T22:13:17.303Z,14.10
2023-01-03T22:18:22.420Z,14.70
2023-01-03T22:23:26.043Z,14.10
2023-01-03T22:28:34.485Z,14.10
2023-01-03T22:33:39.558Z,14.10
2023-01-03T22:38:44.360Z,14.20
2023-01-03T22:43:53.870Z,14.20
2023-01-03T22:48:58.874Z,14.20
2023-01-03T22:59:06.597Z,14.20
2023-01-03T23:04:12.582Z,14.20
2023-01-03T23:09:16.724Z,14.30
2023-01-03T23:14:21.976Z,14.30
2023-01-03T23:19:28.163Z,14.30
2023-01-03T23:24:32.031Z,14.30
2023-01-03T23:29:35.699Z,14.30
